AAA136 YSSY-YBCG
Flight info
| Callsign | AAA136 |
|---|---|
| Flight time | 1h 11m |
| Altitude | 29000 |
| Route | TESAT H252 OLSEM Y193 BANDA Y43 GREAV DCT GOMOL |
| Aircraft | F28/M-SDFIRWY/H |
Departure
| Time | 2026-05-06 11:42 |
|---|---|
| Airport | Sydney Kingsford Smith International Airport (YSSY) |
Arrival
| Time | 2026-05-06 12:53 |
|---|---|
| Airport | Gold Coast Airport (YBCG) |
| Time | Latitude | Longitude | Altitude | Speed | Heading |
|---|---|---|---|---|---|
| 2026-05-06 10:49 | -33.93596 | 151.17746 | 33 ft | 0 kts | 302° |
| 2026-05-06 11:28 | -33.93603 | 151.17761 | 27 ft | 2 kts | 293° |
| 2026-05-06 11:28 | -33.93608 | 151.17780 | 27 ft | 2 kts | 277° |
| 2026-05-06 11:28 | -33.93606 | 151.17800 | 27 ft | 2 kts | 251° |
| 2026-05-06 11:28 | -33.93597 | 151.17817 | 27 ft | 2 kts | 221° |
| 2026-05-06 11:29 | -33.93588 | 151.17823 | 27 ft | 0 kts | 199° |
| 2026-05-06 11:33 | -33.93601 | 151.17820 | 27 ft | 4 kts | 191° |
| 2026-05-06 11:34 | -33.93645 | 151.17812 | 27 ft | 8 kts | 188° |
| 2026-05-06 11:34 | -33.93709 | 151.17793 | 27 ft | 12 kts | 195° |
| 2026-05-06 11:34 | -33.93795 | 151.17767 | 27 ft | 13 kts | 193° |
| 2026-05-06 11:34 | -33.93895 | 151.17779 | 27 ft | 16 kts | 167° |
| 2026-05-06 11:35 | -33.94018 | 151.17811 | 26 ft | 20 kts | 168° |
| 2026-05-06 11:35 | -33.94153 | 151.17845 | 27 ft | 19 kts | 168° |
| 2026-05-06 11:35 | -33.94281 | 151.17877 | 27 ft | 19 kts | 167° |
| 2026-05-06 11:35 | -33.94414 | 151.17911 | 27 ft | 20 kts | 170° |
| 2026-05-06 11:36 | -33.94530 | 151.17883 | 27 ft | 17 kts | 168° |
| 2026-05-06 11:36 | -33.94653 | 151.17917 | 27 ft | 21 kts | 168° |
| 2026-05-06 11:36 | -33.94798 | 151.17953 | 27 ft | 21 kts | 166° |
| 2026-05-06 11:36 | -33.94942 | 151.17991 | 27 ft | 21 kts | 169° |
| 2026-05-06 11:37 | -33.95079 | 151.18031 | 28 ft | 18 kts | 147° |
| 2026-05-06 11:37 | -33.95087 | 151.18167 | 28 ft | 18 kts | 76° |
| 2026-05-06 11:37 | -33.95061 | 151.18313 | 28 ft | 18 kts | 79° |
| 2026-05-06 11:37 | -33.95042 | 151.18423 | 28 ft | 1 kts | 77° |
| 2026-05-06 11:38 | -33.95041 | 151.18431 | 28 ft | 4 kts | 77° |
| 2026-05-06 11:38 | -33.95063 | 151.18504 | 28 ft | 16 kts | 142° |
| 2026-05-06 11:38 | -33.95157 | 151.18590 | 27 ft | 18 kts | 138° |
| 2026-05-06 11:38 | -33.95254 | 151.18689 | 27 ft | 20 kts | 150° |
| 2026-05-06 11:39 | -33.95407 | 151.18743 | 27 ft | 24 kts | 169° |
| 2026-05-06 11:39 | -33.95566 | 151.18785 | 27 ft | 23 kts | 168° |
| 2026-05-06 11:39 | -33.95724 | 151.18825 | 27 ft | 24 kts | 167° |
| 2026-05-06 11:39 | -33.95895 | 151.18870 | 27 ft | 27 kts | 168° |
| 2026-05-06 11:40 | -33.96086 | 151.18920 | 27 ft | 30 kts | 168° |
| 2026-05-06 11:40 | -33.96304 | 151.18976 | 27 ft | 33 kts | 167° |
| 2026-05-06 11:40 | -33.96538 | 151.19037 | 27 ft | 36 kts | 167° |
| 2026-05-06 11:40 | -33.96763 | 151.19069 | 27 ft | 29 kts | 192° |
| 2026-05-06 11:41 | -33.96932 | 151.19094 | 27 ft | 24 kts | 168° |
| 2026-05-06 11:41 | -33.97101 | 151.19142 | 28 ft | 22 kts | 154° |
| 2026-05-06 11:41 | -33.97112 | 151.19265 | 28 ft | 16 kts | 77° |
| 2026-05-06 11:41 | -33.97071 | 151.19367 | 24 ft | 10 kts | 9° |
| 2026-05-06 11:42 | -33.97010 | 151.19357 | 22 ft | 11 kts | 348° |
| 2026-05-06 11:42 | -33.96625 | 151.19260 | 21 ft | 104 kts | 347° |
| 2026-05-06 11:42 | -33.95647 | 151.19009 | 137 ft | 174 kts | 347° |
| 2026-05-06 11:42 | -33.94310 | 151.18641 | 792 ft | 217 kts | 346° |
| 2026-05-06 11:43 | -33.92765 | 151.18211 | 1681 ft | 232 kts | 347° |
| 2026-05-06 11:43 | -33.91147 | 151.18212 | 2562 ft | 238 kts | 15° |
| 2026-05-06 11:43 | -33.89648 | 151.19094 | 3415 ft | 241 kts | 30° |
| 2026-05-06 11:44 | -33.86833 | 151.21339 | 4952 ft | 245 kts | 33° |
| 2026-05-06 11:44 | -33.85434 | 151.22529 | 5584 ft | 248 kts | 33° |
| 2026-05-06 11:44 | -33.84031 | 151.23747 | 6104 ft | 250 kts | 33° |
| 2026-05-06 11:44 | -33.82732 | 151.25154 | 6517 ft | 256 kts | 53° |
| 2026-05-06 11:45 | -33.81997 | 151.27110 | 7168 ft | 259 kts | 68° |
| 2026-05-06 11:45 | -33.81409 | 151.29179 | 7802 ft | 263 kts | 70° |
| 2026-05-06 11:45 | -33.80854 | 151.31285 | 8442 ft | 266 kts | 71° |
| 2026-05-06 11:45 | -33.80309 | 151.33425 | 9087 ft | 269 kts | 71° |
| 2026-05-06 11:46 | -33.79764 | 151.35595 | 9723 ft | 274 kts | 72° |
| 2026-05-06 11:46 | -33.79189 | 151.37828 | 10322 ft | 278 kts | 68° |
| 2026-05-06 11:46 | -33.78318 | 151.39865 | 10900 ft | 280 kts | 55° |
| 2026-05-06 11:46 | -33.77220 | 151.41815 | 11519 ft | 283 kts | 52° |
| 2026-05-06 11:47 | -33.76066 | 151.43762 | 11989 ft | 295 kts | 51° |
| 2026-05-06 11:47 | -33.74813 | 151.45822 | 12246 ft | 316 kts | 51° |
| 2026-05-06 11:47 | -33.73513 | 151.47941 | 13046 ft | 315 kts | 51° |
| 2026-05-06 11:47 | -33.72202 | 151.50071 | 13707 ft | 320 kts | 51° |
| 2026-05-06 11:48 | -33.70869 | 151.52234 | 14333 ft | 323 kts | 51° |
| 2026-05-06 11:48 | -33.69454 | 151.54346 | 14937 ft | 325 kts | 46° |
| 2026-05-06 11:48 | -33.67941 | 151.56381 | 15546 ft | 328 kts | 45° |
| 2026-05-06 11:48 | -33.66400 | 151.58414 | 16148 ft | 331 kts | 45° |
| 2026-05-06 11:49 | -33.64851 | 151.60472 | 16743 ft | 333 kts | 44° |
| 2026-05-06 11:49 | -33.63082 | 151.62248 | 17336 ft | 332 kts | 31° |
| 2026-05-06 11:49 | -33.61135 | 151.63751 | 17901 ft | 334 kts | 28° |
| 2026-05-06 11:49 | -33.59142 | 151.65200 | 18455 ft | 336 kts | 27° |
| 2026-05-06 11:50 | -33.57132 | 151.66650 | 18946 ft | 338 kts | 27° |
| 2026-05-06 11:50 | -33.55117 | 151.68127 | 19434 ft | 341 kts | 28° |
| 2026-05-06 11:50 | -33.53098 | 151.69646 | 19906 ft | 344 kts | 28° |
| 2026-05-06 11:50 | -33.51071 | 151.71194 | 20372 ft | 347 kts | 28° |
| 2026-05-06 11:51 | -33.49015 | 151.72701 | 20819 ft | 346 kts | 21° |
| 2026-05-06 11:51 | -33.46761 | 151.73668 | 21272 ft | 344 kts | 12° |
| 2026-05-06 11:51 | -33.44447 | 151.74404 | 21710 ft | 345 kts | 9° |
| 2026-05-06 11:51 | -33.42113 | 151.75077 | 22166 ft | 347 kts | 8° |
| 2026-05-06 11:52 | -33.39758 | 151.75757 | 22603 ft | 349 kts | 8° |
| 2026-05-06 11:52 | -33.37394 | 151.76449 | 23031 ft | 351 kts | 9° |
| 2026-05-06 11:52 | -33.35016 | 151.77179 | 23457 ft | 354 kts | 9° |
| 2026-05-06 11:52 | -33.32625 | 151.77935 | 23833 ft | 356 kts | 9° |
| 2026-05-06 11:53 | -33.30228 | 151.78710 | 24189 ft | 358 kts | 9° |
| 2026-05-06 11:53 | -33.27820 | 151.79497 | 24530 ft | 359 kts | 9° |
| 2026-05-06 11:53 | -33.25398 | 151.80276 | 24870 ft | 361 kts | 8° |
| 2026-05-06 11:53 | -33.22969 | 151.81056 | 25209 ft | 362 kts | 8° |
| 2026-05-06 11:54 | -33.20533 | 151.81843 | 25543 ft | 364 kts | 8° |
| 2026-05-06 11:54 | -33.18085 | 151.82643 | 25862 ft | 365 kts | 8° |
| 2026-05-06 11:54 | -33.15628 | 151.83445 | 26177 ft | 367 kts | 8° |
| 2026-05-06 11:54 | -33.13163 | 151.84234 | 26484 ft | 368 kts | 7° |
| 2026-05-06 11:55 | -33.10684 | 151.85024 | 26787 ft | 369 kts | 7° |
| 2026-05-06 11:55 | -33.08200 | 151.85820 | 27082 ft | 371 kts | 7° |
| 2026-05-06 11:55 | -33.05705 | 151.86625 | 27370 ft | 372 kts | 7° |
| 2026-05-06 11:55 | -33.03202 | 151.87440 | 27659 ft | 373 kts | 7° |
| 2026-05-06 11:56 | -33.00695 | 151.88262 | 27926 ft | 375 kts | 7° |
| 2026-05-06 11:56 | -32.98170 | 151.89071 | 28193 ft | 376 kts | 7° |
| 2026-05-06 11:56 | -32.95640 | 151.89871 | 28459 ft | 377 kts | 7° |
| 2026-05-06 11:56 | -32.93102 | 151.90673 | 28711 ft | 378 kts | 6° |
| 2026-05-06 11:57 | -32.90553 | 151.91482 | 28928 ft | 380 kts | 6° |
| 2026-05-06 11:57 | -32.87977 | 151.92299 | 29002 ft | 386 kts | 6° |
| 2026-05-06 11:57 | -32.82702 | 151.93997 | 29001 ft | 397 kts | 7° |
| 2026-05-06 11:58 | -32.77352 | 151.95725 | 29003 ft | 399 kts | 7° |
| 2026-05-06 11:58 | -32.71981 | 151.97443 | 29000 ft | 400 kts | 7° |
| 2026-05-06 11:59 | -32.66600 | 151.99159 | 28999 ft | 401 kts | 7° |
| 2026-05-06 11:59 | -32.61228 | 152.00870 | 29004 ft | 398 kts | 7° |
| 2026-05-06 12:00 | -32.55887 | 152.02570 | 29002 ft | 397 kts | 7° |
| 2026-05-06 12:00 | -32.51464 | 152.03976 | 28998 ft | 395 kts | 7° |
| 2026-05-06 12:01 | -32.45267 | 152.05945 | 28998 ft | 394 kts | 7° |
| 2026-05-06 12:01 | -32.40878 | 152.07338 | 28991 ft | 392 kts | 7° |
| 2026-05-06 12:02 | -32.35612 | 152.09003 | 29002 ft | 391 kts | 7° |
| 2026-05-06 12:02 | -32.30354 | 152.10668 | 29014 ft | 391 kts | 7° |
| 2026-05-06 12:03 | -32.25096 | 152.12336 | 29011 ft | 391 kts | 7° |
| 2026-05-06 12:03 | -32.19842 | 152.13990 | 29007 ft | 390 kts | 7° |
| 2026-05-06 12:04 | -32.14605 | 152.15641 | 29075 ft | 389 kts | 7° |
| 2026-05-06 12:04 | -32.09380 | 152.17290 | 29085 ft | 389 kts | 7° |
| 2026-05-06 12:05 | -32.04147 | 152.18934 | 29087 ft | 390 kts | 7° |
| 2026-05-06 12:05 | -31.98891 | 152.20578 | 29094 ft | 392 kts | 7° |
| 2026-05-06 12:06 | -31.93606 | 152.22219 | 29090 ft | 394 kts | 7° |
| 2026-05-06 12:06 | -31.88298 | 152.23854 | 29086 ft | 395 kts | 7° |
| 2026-05-06 12:07 | -31.82978 | 152.25485 | 29079 ft | 396 kts | 7° |
| 2026-05-06 12:07 | -31.77643 | 152.27134 | 29084 ft | 397 kts | 8° |
| 2026-05-06 12:08 | -31.72301 | 152.28813 | 29089 ft | 397 kts | 7° |
| 2026-05-06 12:08 | -31.66956 | 152.30470 | 29095 ft | 398 kts | 8° |
| 2026-05-06 12:09 | -31.61603 | 152.32138 | 29090 ft | 398 kts | 8° |
| 2026-05-06 12:09 | -31.56243 | 152.33804 | 29097 ft | 399 kts | 8° |
| 2026-05-06 12:10 | -31.50913 | 152.35457 | 29096 ft | 399 kts | 7° |
| 2026-05-06 12:10 | -31.45542 | 152.37128 | 29101 ft | 400 kts | 8° |
| 2026-05-06 12:11 | -31.40164 | 152.38785 | 29098 ft | 400 kts | 7° |
| 2026-05-06 12:11 | -31.34782 | 152.40454 | 29102 ft | 400 kts | 7° |
| 2026-05-06 12:12 | -31.29392 | 152.42125 | 29094 ft | 401 kts | 7° |
| 2026-05-06 12:12 | -31.23997 | 152.43782 | 29101 ft | 401 kts | 8° |
| 2026-05-06 12:13 | -31.18597 | 152.45437 | 29084 ft | 401 kts | 7° |
| 2026-05-06 12:13 | -31.13211 | 152.47094 | 29067 ft | 400 kts | 8° |
| 2026-05-06 12:14 | -31.07839 | 152.48757 | 29099 ft | 399 kts | 7° |
| 2026-05-06 12:14 | -31.02459 | 152.50387 | 29102 ft | 400 kts | 7° |
| 2026-05-06 12:15 | -30.97068 | 152.52038 | 29109 ft | 401 kts | 7° |
| 2026-05-06 12:15 | -30.91667 | 152.53686 | 29109 ft | 401 kts | 7° |
| 2026-05-06 12:16 | -30.86267 | 152.55351 | 29101 ft | 402 kts | 7° |
| 2026-05-06 12:16 | -30.80867 | 152.57080 | 29098 ft | 404 kts | 10° |
| 2026-05-06 12:17 | -30.75540 | 152.59266 | 29104 ft | 408 kts | 13° |
| 2026-05-06 12:17 | -30.70262 | 152.61727 | 29106 ft | 409 kts | 15° |
| 2026-05-06 12:18 | -30.64982 | 152.64219 | 29118 ft | 410 kts | 14° |
| 2026-05-06 12:18 | -30.59683 | 152.66667 | 29109 ft | 410 kts | 14° |
| 2026-05-06 12:19 | -30.54375 | 152.69113 | 29100 ft | 411 kts | 14° |
| 2026-05-06 12:19 | -30.49069 | 152.71566 | 29097 ft | 410 kts | 14° |
| 2026-05-06 12:20 | -30.43773 | 152.74025 | 29110 ft | 410 kts | 14° |
| 2026-05-06 12:20 | -30.38476 | 152.76492 | 29104 ft | 411 kts | 14° |
| 2026-05-06 12:21 | -30.33165 | 152.78927 | 29106 ft | 410 kts | 13° |
| 2026-05-06 12:21 | -30.27860 | 152.81366 | 29106 ft | 410 kts | 13° |
| 2026-05-06 12:22 | -30.22581 | 152.83772 | 29107 ft | 411 kts | 13° |
| 2026-05-06 12:22 | -30.17271 | 152.86201 | 29112 ft | 410 kts | 13° |
| 2026-05-06 12:23 | -30.11953 | 152.88631 | 29108 ft | 411 kts | 13° |
| 2026-05-06 12:23 | -30.06634 | 152.91055 | 29091 ft | 411 kts | 13° |
| 2026-05-06 12:24 | -30.01335 | 152.93485 | 29111 ft | 409 kts | 13° |
| 2026-05-06 12:24 | -29.96059 | 152.95885 | 29106 ft | 407 kts | 13° |
| 2026-05-06 12:25 | -29.90802 | 152.98288 | 29110 ft | 406 kts | 13° |
| 2026-05-06 12:25 | -29.85554 | 153.00679 | 29108 ft | 405 kts | 13° |
| 2026-05-06 12:26 | -29.80316 | 153.03062 | 29107 ft | 404 kts | 13° |
| 2026-05-06 12:26 | -29.75086 | 153.05437 | 29110 ft | 404 kts | 13° |
| 2026-05-06 12:27 | -29.69865 | 153.07807 | 29106 ft | 403 kts | 13° |
| 2026-05-06 12:27 | -29.64647 | 153.10172 | 29105 ft | 403 kts | 13° |
| 2026-05-06 12:28 | -29.59461 | 153.12521 | 29103 ft | 403 kts | 13° |
| 2026-05-06 12:28 | -29.54195 | 153.14908 | 29107 ft | 404 kts | 13° |
| 2026-05-06 12:29 | -29.48986 | 153.17263 | 29110 ft | 405 kts | 13° |
| 2026-05-06 12:29 | -29.46418 | 153.18427 | 29076 ft | 391 kts | 13° |
| 2026-05-06 12:29 | -29.43906 | 153.19567 | 28716 ft | 386 kts | 13° |
| 2026-05-06 12:30 | -29.41422 | 153.20690 | 28337 ft | 382 kts | 13° |
| 2026-05-06 12:30 | -29.38953 | 153.21801 | 27949 ft | 381 kts | 13° |
| 2026-05-06 12:30 | -29.36479 | 153.22904 | 27472 ft | 382 kts | 13° |
| 2026-05-06 12:30 | -29.33992 | 153.24014 | 26896 ft | 386 kts | 13° |
| 2026-05-06 12:31 | -29.31474 | 153.25145 | 26263 ft | 392 kts | 14° |
| 2026-05-06 12:31 | -29.28918 | 153.26284 | 25611 ft | 396 kts | 14° |
| 2026-05-06 12:31 | -29.26356 | 153.27433 | 24961 ft | 391 kts | 14° |
| 2026-05-06 12:31 | -29.23890 | 153.28561 | 24322 ft | 372 kts | 15° |
| 2026-05-06 12:32 | -29.21548 | 153.29634 | 23653 ft | 355 kts | 14° |
| 2026-05-06 12:32 | -29.19283 | 153.30649 | 22846 ft | 344 kts | 14° |
| 2026-05-06 12:32 | -29.17078 | 153.31625 | 22062 ft | 335 kts | 14° |
| 2026-05-06 12:32 | -29.14931 | 153.32589 | 21304 ft | 330 kts | 14° |
| 2026-05-06 12:33 | -29.12772 | 153.33555 | 20570 ft | 336 kts | 14° |
| 2026-05-06 12:33 | -29.10580 | 153.34521 | 19845 ft | 339 kts | 15° |
| 2026-05-06 12:33 | -29.08366 | 153.35501 | 19159 ft | 342 kts | 15° |
| 2026-05-06 12:33 | -29.06142 | 153.36488 | 18479 ft | 344 kts | 15° |
| 2026-05-06 12:34 | -29.03905 | 153.37480 | 17704 ft | 345 kts | 16° |
| 2026-05-06 12:34 | -29.01670 | 153.38482 | 16947 ft | 345 kts | 17° |
| 2026-05-06 12:34 | -28.99434 | 153.39480 | 16264 ft | 343 kts | 17° |
| 2026-05-06 12:34 | -28.97265 | 153.40444 | 15784 ft | 336 kts | 17° |
| 2026-05-06 12:35 | -28.95109 | 153.41403 | 15305 ft | 330 kts | 17° |
| 2026-05-06 12:35 | -28.92993 | 153.42363 | 14838 ft | 325 kts | 17° |
| 2026-05-06 12:35 | -28.90909 | 153.43312 | 14368 ft | 320 kts | 18° |
| 2026-05-06 12:35 | -28.88848 | 153.44246 | 13896 ft | 317 kts | 17° |
| 2026-05-06 12:36 | -28.86810 | 153.45159 | 13359 ft | 314 kts | 17° |
| 2026-05-06 12:36 | -28.84786 | 153.46065 | 12840 ft | 312 kts | 17° |
| 2026-05-06 12:36 | -28.82774 | 153.46961 | 12333 ft | 310 kts | 17° |
| 2026-05-06 12:36 | -28.80767 | 153.47854 | 11831 ft | 309 kts | 18° |
| 2026-05-06 12:37 | -28.78765 | 153.48742 | 11358 ft | 308 kts | 17° |
| 2026-05-06 12:37 | -28.76777 | 153.49619 | 10937 ft | 306 kts | 17° |
| 2026-05-06 12:37 | -28.74803 | 153.50487 | 10548 ft | 303 kts | 18° |
| 2026-05-06 12:37 | -28.72844 | 153.51342 | 10173 ft | 301 kts | 18° |
| 2026-05-06 12:38 | -28.70900 | 153.52193 | 9768 ft | 299 kts | 18° |
| 2026-05-06 12:38 | -28.68962 | 153.53054 | 9340 ft | 298 kts | 18° |
| 2026-05-06 12:38 | -28.67054 | 153.53906 | 9169 ft | 290 kts | 18° |
| 2026-05-06 12:38 | -28.65210 | 153.54731 | 9108 ft | 280 kts | 18° |
| 2026-05-06 12:39 | -28.63425 | 153.55530 | 9103 ft | 272 kts | 18° |
| 2026-05-06 12:39 | -28.61681 | 153.56311 | 9047 ft | 268 kts | 18° |
| 2026-05-06 12:39 | -28.59920 | 153.57096 | 8700 ft | 277 kts | 18° |
| 2026-05-06 12:39 | -28.58105 | 153.57896 | 8328 ft | 282 kts | 18° |
| 2026-05-06 12:40 | -28.56259 | 153.58703 | 7961 ft | 285 kts | 19° |
| 2026-05-06 12:40 | -28.54396 | 153.59511 | 7604 ft | 288 kts | 19° |
| 2026-05-06 12:40 | -28.52522 | 153.60326 | 7241 ft | 289 kts | 18° |
| 2026-05-06 12:40 | -28.50641 | 153.61089 | 7065 ft | 284 kts | 17° |
| 2026-05-06 12:41 | -28.48796 | 153.61808 | 7001 ft | 278 kts | 17° |
| 2026-05-06 12:41 | -28.46986 | 153.62486 | 6998 ft | 271 kts | 16° |
| 2026-05-06 12:41 | -28.45180 | 153.63151 | 6753 ft | 275 kts | 16° |
| 2026-05-06 12:41 | -28.43347 | 153.63831 | 6491 ft | 279 kts | 17° |
| 2026-05-06 12:42 | -28.41492 | 153.64520 | 6210 ft | 281 kts | 16° |
| 2026-05-06 12:42 | -28.39624 | 153.65201 | 5938 ft | 282 kts | 16° |
| 2026-05-06 12:42 | -28.37749 | 153.65878 | 5671 ft | 283 kts | 16° |
| 2026-05-06 12:42 | -28.35870 | 153.66558 | 5401 ft | 284 kts | 16° |
| 2026-05-06 12:43 | -28.33990 | 153.67238 | 5136 ft | 284 kts | 16° |
| 2026-05-06 12:43 | -28.32106 | 153.67918 | 4863 ft | 284 kts | 17° |
| 2026-05-06 12:43 | -28.30264 | 153.68593 | 4940 ft | 273 kts | 17° |
| 2026-05-06 12:43 | -28.28445 | 153.69023 | 4994 ft | 264 kts | 358° |
| 2026-05-06 12:44 | -28.26681 | 153.68665 | 4990 ft | 260 kts | 343° |
| 2026-05-06 12:44 | -28.24955 | 153.68079 | 4991 ft | 258 kts | 340° |
| 2026-05-06 12:44 | -28.23258 | 153.67425 | 4994 ft | 257 kts | 339° |
| 2026-05-06 12:44 | -28.21576 | 153.66741 | 4989 ft | 256 kts | 339° |
| 2026-05-06 12:45 | -28.19901 | 153.66048 | 4995 ft | 256 kts | 338° |
| 2026-05-06 12:45 | -28.18230 | 153.65351 | 4989 ft | 256 kts | 338° |
| 2026-05-06 12:45 | -28.14893 | 153.63960 | 4994 ft | 255 kts | 338° |
| 2026-05-06 12:46 | -28.13220 | 153.63273 | 4996 ft | 256 kts | 339° |
| 2026-05-06 12:46 | -28.11542 | 153.62595 | 4990 ft | 256 kts | 339° |
| 2026-05-06 12:46 | -28.09864 | 153.61924 | 4993 ft | 256 kts | 339° |
| 2026-05-06 12:46 | -28.08185 | 153.61260 | 4994 ft | 256 kts | 339° |
| 2026-05-06 12:47 | -28.06503 | 153.60591 | 4995 ft | 256 kts | 339° |
| 2026-05-06 12:47 | -28.04825 | 153.59922 | 4994 ft | 256 kts | 339° |
| 2026-05-06 12:47 | -28.03159 | 153.59215 | 4992 ft | 255 kts | 331° |
| 2026-05-06 12:47 | -28.01876 | 153.57884 | 4981 ft | 252 kts | 300° |
| 2026-05-06 12:48 | -28.01457 | 153.56674 | 4991 ft | 250 kts | 279° |
| 2026-05-06 12:48 | -28.01507 | 153.54060 | 4770 ft | 248 kts | 264° |
| 2026-05-06 12:48 | -28.01701 | 153.52116 | 4372 ft | 249 kts | 263° |
| 2026-05-06 12:48 | -28.01896 | 153.50156 | 3956 ft | 252 kts | 264° |
| 2026-05-06 12:49 | -28.02005 | 153.48847 | 3682 ft | 253 kts | 265° |
| 2026-05-06 12:49 | -28.02148 | 153.46198 | 3136 ft | 256 kts | 267° |
| 2026-05-06 12:49 | -28.02302 | 153.44215 | 2787 ft | 251 kts | 253° |
| 2026-05-06 12:49 | -28.03189 | 153.42573 | 2568 ft | 247 kts | 221° |
| 2026-05-06 12:50 | -28.04174 | 153.41879 | 2520 ft | 247 kts | 200° |
| 2026-05-06 12:50 | -28.06376 | 153.41861 | 2505 ft | 240 kts | 158° |
| 2026-05-06 12:50 | -28.07354 | 153.42425 | 2518 ft | 237 kts | 149° |
| 2026-05-06 12:50 | -28.08571 | 153.43570 | 2517 ft | 218 kts | 133° |
| 2026-05-06 12:51 | -28.09727 | 153.45121 | 2086 ft | 168 kts | 130° |
| 2026-05-06 12:51 | -28.10215 | 153.45734 | 1792 ft | 152 kts | 133° |
| 2026-05-06 12:51 | -28.10920 | 153.46524 | 1357 ft | 132 kts | 137° |
| 2026-05-06 12:51 | -28.11624 | 153.47220 | 981 ft | 133 kts | 140° |
| 2026-05-06 12:52 | -28.12332 | 153.47863 | 743 ft | 127 kts | 145° |
| 2026-05-06 12:52 | -28.13073 | 153.48440 | 608 ft | 127 kts | 150° |
| 2026-05-06 12:52 | -28.13820 | 153.48932 | 426 ft | 125 kts | 155° |
| 2026-05-06 12:52 | -28.14584 | 153.49402 | 276 ft | 125 kts | 154° |
| 2026-05-06 12:53 | -28.15341 | 153.49883 | 134 ft | 124 kts | 153° |
| 2026-05-06 12:53 | -28.16030 | 153.50315 | 28 ft | 102 kts | 153° |
| 2026-05-06 12:53 | -28.16562 | 153.50649 | 25 ft | 75 kts | 150° |
| 2026-05-06 12:53 | -28.16914 | 153.50879 | 24 ft | 33 kts | 143° |
| 2026-05-06 12:54 | -28.16925 | 153.50985 | 21 ft | 6 kts | 61° |
| 2026-05-06 12:54 | -28.16904 | 153.51028 | 21 ft | 7 kts | 61° |
| 2026-05-06 12:54 | -28.16879 | 153.51079 | 21 ft | 9 kts | 61° |
| 2026-05-06 12:54 | -28.16842 | 153.51153 | 22 ft | 7 kts | 53° |
| 2026-05-06 12:55 | -28.16807 | 153.51172 | 21 ft | 10 kts | 39° |
| 2026-05-06 12:55 | -28.16777 | 153.51231 | 21 ft | 9 kts | 60° |
| 2026-05-06 12:55 | -28.16766 | 153.51252 | 21 ft | 0 kts | 60° |